sensor_id;sensor_type;location;lat;lon;timestamp;pressure;altitude;pressure_sealevel;temperature;humidity
69037;BME280;58547;51.690;5.186;2022-09-09T00:00:15;100806.31;;;14.66;92.14
69037;BME280;58547;51.690;5.186;2022-09-09T00:03:07;100816.38;;;14.72;91.40
69037;BME280;58547;51.690;5.186;2022-09-09T00:06:30;100804.22;;;14.71;91.04
69037;BME280;58547;51.690;5.186;2022-09-09T00:08:58;100800.63;;;14.72;91.08
69037;BME280;58547;51.690;5.186;2022-09-09T00:11:41;100797.50;;;14.67;91.34
69037;BME280;58547;51.690;5.186;2022-09-09T00:14:23;100801.41;;;14.61;91.28
69037;BME280;58547;51.690;5.186;2022-09-09T00:16:55;100804.06;;;14.48;92.66
69037;BME280;58547;51.690;5.186;2022-09-09T00:19:39;100812.03;;;14.47;92.06
69037;BME280;58547;51.690;5.186;2022-09-09T00:22:19;100802.34;;;14.47;91.53
69037;BME280;58547;51.690;5.186;2022-09-09T00:24:49;100803.03;;;14.38;91.56
69037;BME280;58547;51.690;5.186;2022-09-09T00:29:53;100791.78;;;14.36;92.79
69037;BME280;58547;51.690;5.186;2022-09-09T00:32:21;100797.78;;;14.38;92.95
69037;BME280;58547;51.690;5.186;2022-09-09T00:34:48;100793.03;;;14.43;90.42
69037;BME280;58547;51.690;5.186;2022-09-09T00:37:14;100786.31;;;14.39;91.30
69037;BME280;58547;51.690;5.186;2022-09-09T00:39:42;100777.31;;;14.30;92.07
69037;BME280;58547;51.690;5.186;2022-09-09T00:42:42;100777.31;;;14.30;90.93
69037;BME280;58547;51.690;5.186;2022-09-09T00:45:35;100777.41;;;14.29;91.00
69037;BME280;58547;51.690;5.186;2022-09-09T00:48:10;100769.06;;;14.24;91.55
69037;BME280;58547;51.690;5.186;2022-09-09T00:50:51;100767.69;;;14.18;91.59
69037;BME280;58547;51.690;5.186;2022-09-09T00:53:55;100774.53;;;14.08;92.20
69037;BME280;58547;51.690;5.186;2022-09-09T00:56:32;100770.00;;;14.10;92.56
69037;BME280;58547;51.690;5.186;2022-09-09T01:01:45;100779.38;;;14.01;93.09
69037;BME280;58547;51.690;5.186;2022-09-09T01:04:16;100773.94;;;14.04;91.27
69037;BME280;58547;51.690;5.186;2022-09-09T01:06:50;100771.59;;;14.00;93.36
69037;BME280;58547;51.690;5.186;2022-09-09T01:09:44;100771.84;;;13.96;92.70
69037;BME280;58547;51.690;5.186;2022-09-09T01:12:38;100772.59;;;13.86;93.34
69037;BME280;58547;51.690;5.186;2022-09-09T01:15:17;100770.78;;;13.86;94.24
69037;BME280;58547;51.690;5.186;2022-09-09T01:17:50;100776.03;;;13.86;93.09
69037;BME280;58547;51.690;5.186;2022-09-09T01:20:23;100774.25;;;13.87;93.89
69037;BME280;58547;51.690;5.186;2022-09-09T01:23:15;100771.53;;;13.88;92.88
69037;BME280;58547;51.690;5.186;2022-09-09T01:28:09;100763.78;;;13.74;93.47
69037;BME280;58547;51.690;5.186;2022-09-09T01:30:39;100763.88;;;13.60;94.95
69037;BME280;58547;51.690;5.186;2022-09-09T01:33:07;100752.97;;;13.53;95.27
69037;BME280;58547;51.690;5.186;2022-09-09T01:35:41;100760.75;;;13.54;94.82
69037;BME280;58547;51.690;5.186;2022-09-09T01:38:07;100761.81;;;13.65;94.57
69037;BME280;58547;51.690;5.186;2022-09-09T01:40:33;100752.34;;;13.75;93.04
69037;BME280;58547;51.690;5.186;2022-09-09T01:42:58;100749.84;;;13.73;93.98
69037;BME280;58547;51.690;5.186;2022-09-09T01:45:24;100751.91;;;13.81;92.39
69037;BME280;58547;51.690;5.186;2022-09-09T01:47:51;100756.31;;;13.81;94.17
69037;BME280;58547;51.690;5.186;2022-09-09T01:50:18;100760.72;;;13.80;94.11
69037;BME280;58547;51.690;5.186;2022-09-09T01:52:46;100752.53;;;13.85;93.39
69037;BME280;58547;51.690;5.186;2022-09-09T01:55:14;100751.59;;;13.86;93.43
69037;BME280;58547;51.690;5.186;2022-09-09T01:57:46;100735.66;;;13.89;93.97
69037;BME280;58547;51.690;5.186;2022-09-09T02:00:15;100744.56;;;13.86;93.32
69037;BME280;58547;51.690;5.186;2022-09-09T02:02:57;100739.13;;;13.76;92.67
69037;BME280;58547;51.690;5.186;2022-09-09T02:05:36;100741.25;;;13.71;94.13
69037;BME280;58547;51.690;5.186;2022-09-09T02:08:17;100739.34;;;13.73;93.35
69037;BME280;58547;51.690;5.186;2022-09-09T02:13:18;100733.69;;;13.67;94.37
69037;BME280;58547;51.690;5.186;2022-09-09T02:15:52;100731.19;;;13.65;93.96
69037;BME280;58547;51.690;5.186;2022-09-09T02:18:27;100725.09;;;13.65;93.83
69037;BME280;58547;51.690;5.186;2022-09-09T02:20:53;100730.88;;;13.57;93.07
69037;BME280;58547;51.690;5.186;2022-09-09T02:23:19;100734.94;;;13.61;91.87
69037;BME280;58547;51.690;5.186;2022-09-09T02:25:45;100729.72;;;13.48;93.10
69037;BME280;58547;51.690;5.186;2022-09-09T02:28:12;100723.00;;;13.44;94.80
69037;BME280;58547;51.690;5.186;2022-09-09T02:30:40;100721.31;;;13.43;95.06
69037;BME280;58547;51.690;5.186;2022-09-09T02:33:08;100731.59;;;13.46;94.97
69037;BME280;58547;51.690;5.186;2022-09-09T02:35:35;100732.22;;;13.50;95.37
69037;BME280;58547;51.690;5.186;2022-09-09T02:38:05;100731.91;;;13.54;95.13
69037;BME280;58547;51.690;5.186;2022-09-09T02:40:32;100726.53;;;13.56;94.10
69037;BME280;58547;51.690;5.186;2022-09-09T02:42:57;100728.66;;;13.64;92.58
69037;BME280;58547;51.690;5.186;2022-09-09T02:45:25;100716.50;;;13.63;94.51
69037;BME280;58547;51.690;5.186;2022-09-09T02:48:09;100722.03;;;13.58;93.75
69037;BME280;58547;51.690;5.186;2022-09-09T02:53:21;100718.28;;;13.49;94.92
69037;BME280;58547;51.690;5.186;2022-09-09T02:56:09;100713.78;;;13.51;93.95
69037;BME280;58547;51.690;5.186;2022-09-09T02:58:38;100712.72;;;13.54;95.29
69037;BME280;58547;51.690;5.186;2022-09-09T03:01:04;100721.72;;;13.50;94.70
69037;BME280;58547;51.690;5.186;2022-09-09T03:03:30;100726.69;;;13.54;93.15
69037;BME280;58547;51.690;5.186;2022-09-09T03:05:56;100724.66;;;13.45;94.36
69037;BME280;58547;51.690;5.186;2022-09-09T03:08:21;100722.69;;;13.49;93.14
69037;BME280;58547;51.690;5.186;2022-09-09T03:10:47;100720.47;;;13.43;94.91
69037;BME280;58547;51.690;5.186;2022-09-09T03:13:12;100724.66;;;13.45;95.05
69037;BME280;58547;51.690;5.186;2022-09-09T03:15:38;100718.38;;;13.48;92.80
69037;BME280;58547;51.690;5.186;2022-09-09T03:18:03;100725.81;;;13.41;94.18
69037;BME280;58547;51.690;5.186;2022-09-09T03:20:29;100719.97;;;13.38;95.73
69037;BME280;58547;51.690;5.186;2022-09-09T03:22:56;100727.84;;;13.38;95.56
69037;BME280;58547;51.690;5.186;2022-09-09T03:25:22;100734.63;;;13.40;95.21
69037;BME280;58547;51.690;5.186;2022-09-09T03:27:51;100730.97;;;13.43;95.19
69037;BME280;58547;51.690;5.186;2022-09-09T03:30:19;100728.34;;;13.43;94.97
69037;BME280;58547;51.690;5.186;2022-09-09T03:32:45;100720.91;;;13.49;93.47
69037;BME280;58547;51.690;5.186;2022-09-09T03:35:10;100726.56;;;13.43;95.72
69037;BME280;58547;51.690;5.186;2022-09-09T03:37:35;100725.00;;;13.41;95.47
69037;BME280;58547;51.690;5.186;2022-09-09T03:40:01;100723.84;;;13.45;93.20
69037;BME280;58547;51.690;5.186;2022-09-09T03:42:26;100725.41;;;13.34;96.09
69037;BME280;58547;51.690;5.186;2022-09-09T03:44:52;100722.06;;;13.32;95.89
69037;BME280;58547;51.690;5.186;2022-09-09T03:47:21;100719.72;;;13.28;95.89
69037;BME280;58547;51.690;5.186;2022-09-09T03:49:49;100716.38;;;13.26;96.50
69037;BME280;58547;51.690;5.186;2022-09-09T03:52:15;100711.03;;;13.27;94.51
69037;BME280;58547;51.690;5.186;2022-09-09T03:54:41;100711.44;;;13.21;96.56
69037;BME280;58547;51.690;5.186;2022-09-09T03:57:08;100711.94;;;13.26;96.88
69037;BME280;58547;51.690;5.186;2022-09-09T03:59:33;100715.31;;;13.28;97.24
69037;BME280;58547;51.690;5.186;2022-09-09T04:02:00;100712.69;;;13.28;96.98
69037;BME280;58547;51.690;5.186;2022-09-09T04:04:25;100717.88;;;13.30;94.75
69037;BME280;58547;51.690;5.186;2022-09-09T04:06:51;100712.63;;;13.30;96.43
69037;BME280;58547;51.690;5.186;2022-09-09T04:09:17;100710.66;;;13.33;94.90
69037;BME280;58547;51.690;5.186;2022-09-09T04:11:42;100711.94;;;13.26;97.36
69037;BME280;58547;51.690;5.186;2022-09-09T04:14:07;100713.00;;;13.24;97.16
69037;BME280;58547;51.690;5.186;2022-09-09T04:16:34;100725.88;;;13.27;97.31
69037;BME280;58547;51.690;5.186;2022-09-09T04:19:03;100721.59;;;13.26;97.62
69037;BME280;58547;51.690;5.186;2022-09-09T04:21:29;100719.66;;;13.29;97.96
69037;BME280;58547;51.690;5.186;2022-09-09T04:23:55;100712.22;;;13.36;95.69
69037;BME280;58547;51.690;5.186;2022-09-09T04:26:20;100707.28;;;13.31;97.16
69037;BME280;58547;51.690;5.186;2022-09-09T04:28:45;100708.59;;;13.24;96.63
69037;BME280;58547;51.690;5.186;2022-09-09T04:31:16;100709.75;;;13.20;96.78
69037;BME280;58547;51.690;5.186;2022-09-09T04:33:43;100709.00;;;13.18;97.89
69037;BME280;58547;51.690;5.186;2022-09-09T04:36:08;100707.66;;;13.25;95.14
69037;BME280;58547;51.690;5.186;2022-09-09T04:38:33;100704.31;;;13.23;97.44
69037;BME280;58547;51.690;5.186;2022-09-09T04:40:58;100705.97;;;13.24;97.21
69037;BME280;58547;51.690;5.186;2022-09-09T04:43:24;100704.31;;;13.23;98.16
69037;BME280;58547;51.690;5.186;2022-09-09T04:45:51;100697.47;;;13.21;97.79
69037;BME280;58547;51.690;5.186;2022-09-09T04:48:16;100705.06;;;13.25;95.77
69037;BME280;58547;51.690;5.186;2022-09-09T04:50:42;100705.66;;;13.16;97.53
69037;BME280;58547;51.690;5.186;2022-09-09T04:53:07;100704.91;;;13.14;98.10
69037;BME280;58547;51.690;5.186;2022-09-09T04:55:34;100699.59;;;13.15;98.47
69037;BME280;58547;51.690;5.186;2022-09-09T04:58:07;100694.56;;;13.12;99.20
69037;BME280;58547;51.690;5.186;2022-09-09T05:00:34;100687.31;;;13.16;99.07
69037;BME280;58547;51.690;5.186;2022-09-09T05:03:04;100692.16;;;13.22;99.38
69037;BME280;58547;51.690;5.186;2022-09-09T05:05:30;100693.19;;;13.20;99.01
69037;BME280;58547;51.690;5.186;2022-09-09T05:08:00;100680.84;;;13.22;97.58
69037;BME280;58547;51.690;5.186;2022-09-09T05:10:25;100685.53;;;13.16;99.62
69037;BME280;58547;51.690;5.186;2022-09-09T05:12:54;100683.56;;;13.20;97.25
69037;BME280;58547;51.690;5.186;2022-09-09T05:15:19;100679.56;;;13.14;98.96
69037;BME280;58547;51.690;5.186;2022-09-09T05:17:46;100669.94;;;13.15;99.96
69037;BME280;58547;51.690;5.186;2022-09-09T05:20:11;100669.53;;;13.21;98.12
69037;BME280;58547;51.690;5.186;2022-09-09T05:22:37;100671.00;;;13.12;99.18
69037;BME280;58547;51.690;5.186;2022-09-09T05:25:02;100670.69;;;13.17;97.03
69037;BME280;58547;51.690;5.186;2022-09-09T05:27:28;100672.56;;;13.15;99.53
69037;BME280;58547;51.690;5.186;2022-09-09T05:29:53;100676.75;;;13.18;99.44
69037;BME280;58547;51.690;5.186;2022-09-09T05:32:18;100681.56;;;13.24;99.68
69037;BME280;58547;51.690;5.186;2022-09-09T05:34:43;100672.66;;;13.26;99.94
69037;BME280;58547;51.690;5.186;2022-09-09T05:37:09;100678.34;;;13.33;98.62
69037;BME280;58547;51.690;5.186;2022-09-09T05:39:34;100679.94;;;13.35;99.87
69037;BME280;58547;51.690;5.186;2022-09-09T05:42:02;100675.53;;;13.36;100.00
69037;BME280;58547;51.690;5.186;2022-09-09T05:44:29;100677.09;;;13.39;100.00
69037;BME280;58547;51.690;5.186;2022-09-09T05:46:54;100683.81;;;13.43;98.27
69037;BME280;58547;51.690;5.186;2022-09-09T05:49:19;100688.72;;;13.47;100.00
69037;BME280;58547;51.690;5.186;2022-09-09T05:51:45;100682.66;;;13.47;100.00
69037;BME280;58547;51.690;5.186;2022-09-09T05:54:11;100681.91;;;13.45;100.00
69037;BME280;58547;51.690;5.186;2022-09-09T05:56:39;100684.44;;;13.46;100.00
69037;BME280;58547;51.690;5.186;2022-09-09T05:59:05;100694.38;;;13.54;97.70
69037;BME280;58547;51.690;5.186;2022-09-09T06:01:33;100695.97;;;13.56;100.00
69037;BME280;58547;51.690;5.186;2022-09-09T06:03:59;100685.25;;;13.60;100.00
69037;BME280;58547;51.690;5.186;2022-09-09T06:06:25;100700.78;;;13.63;99.60
69037;BME280;58547;51.690;5.186;2022-09-09T06:08:53;100700.44;;;13.67;100.00
69037;BME280;58547;51.690;5.186;2022-09-09T06:11:23;100691.63;;;13.68;100.00
69037;BME280;58547;51.690;5.186;2022-09-09T06:13:49;100706.09;;;13.74;100.00
69037;BME280;58547;51.690;5.186;2022-09-09T06:16:18;100699.59;;;13.80;100.00
69037;BME280;58547;51.690;5.186;2022-09-09T06:18:44;100701.16;;;13.82;100.00
69037;BME280;58547;51.690;5.186;2022-09-09T06:21:11;100706.91;;;13.87;99.95
69037;BME280;58547;51.690;5.186;2022-09-09T06:23:40;100697.28;;;13.88;100.00
69037;BME280;58547;51.690;5.186;2022-09-09T06:28:33;100709.63;;;13.99;99.43
69037;BME280;58547;51.690;5.186;2022-09-09T06:31:00;100702.97;;;14.06;100.00
69037;BME280;58547;51.690;5.186;2022-09-09T06:33:30;100698.59;;;14.06;100.00
69037;BME280;58547;51.690;5.186;2022-09-09T06:35:55;100689.75;;;14.07;100.00
69037;BME280;58547;51.690;5.186;2022-09-09T06:38:22;100685.16;;;14.11;100.00
69037;BME280;58547;51.690;5.186;2022-09-09T06:40:55;100695.41;;;14.14;100.00
69037;BME280;58547;51.690;5.186;2022-09-09T06:43:30;100696.75;;;14.20;100.00
69037;BME280;58547;51.690;5.186;2022-09-09T06:45:57;100695.34;;;14.27;100.00
69037;BME280;58547;51.690;5.186;2022-09-09T06:48:23;100690.38;;;14.35;100.00
69037;BME280;58547;51.690;5.186;2022-09-09T06:50:51;100693.28;;;14.43;100.00
69037;BME280;58547;51.690;5.186;2022-09-09T06:53:17;100687.59;;;14.49;100.00
69037;BME280;58547;51.690;5.186;2022-09-09T06:55:44;100684.03;;;14.50;100.00
69037;BME280;58547;51.690;5.186;2022-09-09T06:58:09;100680.25;;;14.54;100.00
69037;BME280;58547;51.690;5.186;2022-09-09T07:00:35;100687.69;;;14.61;99.77
69037;BME280;58547;51.690;5.186;2022-09-09T07:03:03;100685.16;;;14.59;100.00
69037;BME280;58547;51.690;5.186;2022-09-09T07:05:28;100687.44;;;14.64;98.78
69037;BME280;58547;51.690;5.186;2022-09-09T07:07:53;100678.63;;;14.65;99.93
69037;BME280;58547;51.690;5.186;2022-09-09T07:10:18;100681.53;;;14.73;98.04
69037;BME280;58547;51.690;5.186;2022-09-09T07:12:44;100676.50;;;14.70;98.57
69037;BME280;58547;51.690;5.186;2022-09-09T07:15:09;100680.69;;;14.72;97.40
69037;BME280;58547;51.690;5.186;2022-09-09T07:17:35;100676.03;;;14.76;99.02
69037;BME280;58547;51.690;5.186;2022-09-09T07:20:00;100682.75;;;14.91;96.46
69037;BME280;58547;51.690;5.186;2022-09-09T07:22:27;100682.03;;;14.89;98.07
69037;BME280;58547;51.690;5.186;2022-09-09T07:24:53;100682.66;;;14.93;98.31
69037;BME280;58547;51.690;5.186;2022-09-09T07:27:18;100682.19;;;14.99;96.70
69037;BME280;58547;51.690;5.186;2022-09-09T07:29:43;100688.06;;;15.03;99.87
69037;BME280;58547;51.690;5.186;2022-09-09T07:32:10;100688.53;;;15.08;99.97
69037;BME280;58547;51.690;5.186;2022-09-09T07:34:36;100689.16;;;15.11;98.27
69037;BME280;58547;51.690;5.186;2022-09-09T07:37:01;100695.94;;;15.14;98.73
69037;BME280;58547;51.690;5.186;2022-09-09T07:39:26;100681.41;;;15.21;96.95
69037;BME280;58547;51.690;5.186;2022-09-09T07:41:52;100682.84;;;15.25;96.42
69037;BME280;58547;51.690;5.186;2022-09-09T07:44:23;100696.00;;;15.25;98.31
69037;BME280;58547;51.690;5.186;2022-09-09T07:46:52;100690.47;;;15.28;98.07
69037;BME280;58547;51.690;5.186;2022-09-09T07:49:17;100690.63;;;15.38;95.93
69037;BME280;58547;51.690;5.186;2022-09-09T07:51:45;100691.81;;;15.34;97.66
69037;BME280;58547;51.690;5.186;2022-09-09T07:54:13;100684.53;;;15.37;97.67
69037;BME280;58547;51.690;5.186;2022-09-09T07:56:40;100679.38;;;15.47;97.12
69037;BME280;58547;51.690;5.186;2022-09-09T07:59:06;100681.66;;;15.52;97.17
69037;BME280;58547;51.690;5.186;2022-09-09T08:01:38;100672.81;;;15.53;94.98
69037;BME280;58547;51.690;5.186;2022-09-09T08:04:06;100683.47;;;15.63;94.59
69037;BME280;58547;51.690;5.186;2022-09-09T08:06:40;100692.78;;;15.67;96.58
69037;BME280;58547;51.690;5.186;2022-09-09T08:09:07;100685.28;;;15.73;95.19
69037;BME280;58547;51.690;5.186;2022-09-09T08:11:32;100689.34;;;15.77;92.20
69037;BME280;58547;51.690;5.186;2022-09-09T08:13:58;100698.06;;;15.78;94.47
69037;BME280;58547;51.690;5.186;2022-09-09T08:16:24;100694.47;;;15.79;93.83
69037;BME280;58547;51.690;5.186;2022-09-09T08:18:51;100698.16;;;15.76;93.16
69037;BME280;58547;51.690;5.186;2022-09-09T08:21:20;100695.44;;;15.78;94.51
69037;BME280;58547;51.690;5.186;2022-09-09T08:23:47;100699.72;;;15.79;94.15
69037;BME280;58547;51.690;5.186;2022-09-09T08:26:24;100692.91;;;15.76;92.85
69037;BME280;58547;51.690;5.186;2022-09-09T08:28:51;100701.16;;;15.83;93.07
69037;BME280;58547;51.690;5.186;2022-09-09T08:31:22;100702.59;;;15.87;92.97
69037;BME280;58547;51.690;5.186;2022-09-09T08:33:49;100700.56;;;15.91;91.89
69037;BME280;58547;51.690;5.186;2022-09-09T08:36:20;100704.88;;;15.92;92.03
69037;BME280;58547;51.690;5.186;2022-09-09T08:38:55;100706.66;;;15.91;90.53
69037;BME280;58547;51.690;5.186;2022-09-09T08:52:29;100719.91;;;16.01;92.66
69037;BME280;58547;51.690;5.186;2022-09-09T08:55:05;100729.13;;;16.07;91.74
69037;BME280;58547;51.690;5.186;2022-09-09T08:57:38;100726.59;;;16.05;91.86
69037;BME280;58547;51.690;5.186;2022-09-09T09:00:04;100727.59;;;16.04;89.69
69037;BME280;58547;51.690;5.186;2022-09-09T09:02:37;100720.16;;;16.09;90.43
69037;BME280;58547;51.690;5.186;2022-09-09T09:05:27;100725.66;;;16.06;91.03
69037;BME280;58547;51.690;5.186;2022-09-09T09:08:17;100731.50;;;16.10;91.26
69037;BME280;58547;51.690;5.186;2022-09-09T09:10:49;100728.75;;;16.11;91.05
69037;BME280;58547;51.690;5.186;2022-09-09T09:13:22;100717.13;;;16.14;90.29
69037;BME280;58547;51.690;5.186;2022-09-09T09:15:56;100732.31;;;16.22;90.40
69037;BME280;58547;51.690;5.186;2022-09-09T09:18:24;100730.41;;;16.24;90.08
69037;BME280;58547;51.690;5.186;2022-09-09T09:23:23;100732.88;;;16.36;88.20
69037;BME280;58547;51.690;5.186;2022-09-09T09:25:50;100738.41;;;16.33;88.22
69037;BME280;58547;51.690;5.186;2022-09-09T09:28:23;100739.03;;;16.26;88.44
69037;BME280;58547;51.690;5.186;2022-09-09T09:31:00;100751.47;;;16.24;88.81
69037;BME280;58547;51.690;5.186;2022-09-09T09:33:34;100741.16;;;16.21;88.90
69037;BME280;58547;51.690;5.186;2022-09-09T09:36:01;100745.38;;;16.12;89.70
69037;BME280;58547;51.690;5.186;2022-09-09T09:38:28;100744.78;;;16.08;89.06
69037;BME280;58547;51.690;5.186;2022-09-09T09:40:58;100735.81;;;15.99;89.60
69037;BME280;58547;51.690;5.186;2022-09-09T09:43:28;100739.06;;;16.03;89.43
69037;BME280;58547;51.690;5.186;2022-09-09T09:45:54;100747.69;;;15.94;90.87
69037;BME280;58547;51.690;5.186;2022-09-09T09:48:20;100747.91;;;15.91;91.01
69037;BME280;58547;51.690;5.186;2022-09-09T09:50:57;100748.41;;;15.73;93.73
69037;BME280;58547;51.690;5.186;2022-09-09T09:53:32;100750.28;;;15.71;96.08
69037;BME280;58547;51.690;5.186;2022-09-09T09:56:10;100752.19;;;15.69;96.78
69037;BME280;58547;51.690;5.186;2022-09-09T09:58:49;100751.22;;;15.70;95.24
69037;BME280;58547;51.690;5.186;2022-09-09T10:03:55;100739.97;;;15.68;96.56
69037;BME280;58547;51.690;5.186;2022-09-09T10:08:56;100738.69;;;15.85;98.25
69037;BME280;58547;51.690;5.186;2022-09-09T10:14:21;100734.47;;;16.16;95.85
69037;BME280;58547;51.690;5.186;2022-09-09T10:16:52;100735.28;;;16.39;98.67
69037;BME280;58547;51.690;5.186;2022-09-09T10:19:34;100737.91;;;16.72;99.09
69037;BME280;58547;51.690;5.186;2022-09-09T10:35:10;100745.13;;;16.70;93.21
69037;BME280;58547;51.690;5.186;2022-09-09T10:38:13;100736.13;;;16.72;93.74
69037;BME280;58547;51.690;5.186;2022-09-09T10:46:34;100726.13;;;16.87;92.69
69037;BME280;58547;51.690;5.186;2022-09-09T10:57:29;100735.03;;;16.75;91.72
69037;BME280;58547;51.690;5.186;2022-09-09T11:00:00;100729.91;;;16.73;94.58
69037;BME280;58547;51.690;5.186;2022-09-09T11:02:31;100718.78;;;16.70;91.64
69037;BME280;58547;51.690;5.186;2022-09-09T11:05:04;100729.09;;;16.62;91.14
69037;BME280;58547;51.690;5.186;2022-09-09T11:10:23;100724.38;;;16.44;93.00
69037;BME280;58547;51.690;5.186;2022-09-09T11:12:51;100726.53;;;16.39;93.05
69037;BME280;58547;51.690;5.186;2022-09-09T11:15:25;100731.34;;;16.34;93.42
69037;BME280;58547;51.690;5.186;2022-09-09T11:17:56;100735.41;;;16.27;95.08
69037;BME280;58547;51.690;5.186;2022-09-09T11:20:25;100739.03;;;16.14;94.70
69037;BME280;58547;51.690;5.186;2022-09-09T11:23:13;100736.88;;;16.08;95.47
69037;BME280;58547;51.690;5.186;2022-09-09T11:25:49;100737.13;;;16.05;97.61
69037;BME280;58547;51.690;5.186;2022-09-09T11:34:27;100734.84;;;16.12;96.91
69037;BME280;58547;51.690;5.186;2022-09-09T11:42:23;100741.06;;;16.22;99.57
69037;BME280;58547;51.690;5.186;2022-09-09T11:44:49;100731.72;;;16.29;99.54
69037;BME280;58547;51.690;5.186;2022-09-09T11:49:46;100731.69;;;16.41;97.35
69037;BME280;58547;51.690;5.186;2022-09-09T11:52:34;100735.47;;;16.48;95.95
69037;BME280;58547;51.690;5.186;2022-09-09T11:55:27;100736.19;;;16.50;97.76
69037;BME280;58547;51.690;5.186;2022-09-09T12:00:44;100724.03;;;16.70;96.35
69037;BME280;58547;51.690;5.186;2022-09-09T12:03:38;100743.47;;;16.69;94.96
69037;BME280;58547;51.690;5.186;2022-09-09T12:06:20;100729.31;;;16.70;94.38
69037;BME280;58547;51.690;5.186;2022-09-09T12:08:53;100733.28;;;16.64;96.38
69037;BME280;58547;51.690;5.186;2022-09-09T12:11:28;100720.06;;;16.75;95.54
69037;BME280;58547;51.690;5.186;2022-09-09T12:13:57;100727.59;;;16.80;93.61
69037;BME280;58547;51.690;5.186;2022-09-09T12:16:34;100732.59;;;16.94;95.66
69037;BME280;58547;51.690;5.186;2022-09-09T12:19:24;100727.72;;;17.11;95.71
69037;BME280;58547;51.690;5.186;2022-09-09T12:22:34;100723.53;;;17.29;93.25
69037;BME280;58547;51.690;5.186;2022-09-09T12:28:01;100726.88;;;17.31;92.05
69037;BME280;58547;51.690;5.186;2022-09-09T12:30:55;100730.78;;;17.16;90.88
69037;BME280;58547;51.690;5.186;2022-09-09T12:33:19;100729.44;;;17.22;92.93
69037;BME280;58547;51.690;5.186;2022-09-09T12:35:57;100735.53;;;17.22;92.74
69037;BME280;58547;51.690;5.186;2022-09-09T12:38:50;100727.50;;;17.24;91.67
69037;BME280;58547;51.690;5.186;2022-09-09T12:41:26;100718.31;;;17.18;91.56
69037;BME280;58547;51.690;5.186;2022-09-09T12:44:03;100730.28;;;17.22;91.73
69037;BME280;58547;51.690;5.186;2022-09-09T12:46:44;100719.72;;;17.22;91.20
69037;BME280;58547;51.690;5.186;2022-09-09T12:49:29;100721.41;;;17.23;91.21
69037;BME280;58547;51.690;5.186;2022-09-09T12:51:59;100713.28;;;17.36;90.33
69037;BME280;58547;51.690;5.186;2022-09-09T12:54:26;100715.00;;;17.47;90.33
69037;BME280;58547;51.690;5.186;2022-09-09T12:56:51;100719.22;;;17.59;89.55
69037;BME280;58547;51.690;5.186;2022-09-09T12:59:27;100715.19;;;17.55;87.83
69037;BME280;58547;51.690;5.186;2022-09-09T13:02:00;100712.97;;;17.60;90.35
69037;BME280;58547;51.690;5.186;2022-09-09T13:04:25;100718.25;;;17.60;89.14
69037;BME280;58547;51.690;5.186;2022-09-09T13:06:51;100710.50;;;17.58;87.62
69037;BME280;58547;51.690;5.186;2022-09-09T13:09:17;100707.97;;;17.57;87.35
69037;BME280;58547;51.690;5.186;2022-09-09T13:11:50;100712.69;;;17.53;87.97
69037;BME280;58547;51.690;5.186;2022-09-09T13:14:19;100704.75;;;17.53;86.78
69037;BME280;58547;51.690;5.186;2022-09-09T13:16:56;100710.16;;;17.52;89.38
69037;BME280;58547;51.690;5.186;2022-09-09T13:19:23;100706.28;;;17.56;88.57
69037;BME280;58547;51.690;5.186;2022-09-09T13:21:52;100711.66;;;17.45;87.22
69037;BME280;58547;51.690;5.186;2022-09-09T13:24:34;100710.78;;;17.34;86.16
69037;BME280;58547;51.690;5.186;2022-09-09T13:27:05;100707.31;;;17.34;85.55
69037;BME280;58547;51.690;5.186;2022-09-09T13:29:51;100709.94;;;17.34;86.64
69037;BME280;58547;51.690;5.186;2022-09-09T13:32:20;100710.78;;;17.34;85.70
69037;BME280;58547;51.690;5.186;2022-09-09T13:34:58;100699.13;;;17.37;85.34
69037;BME280;58547;51.690;5.186;2022-09-09T13:37:37;100695.13;;;17.43;85.84
69037;BME280;58547;51.690;5.186;2022-09-09T13:40:05;100703.47;;;17.48;85.45
69037;BME280;58547;51.690;5.186;2022-09-09T13:42:33;100701.28;;;17.53;84.60
69037;BME280;58547;51.690;5.186;2022-09-09T13:45:01;100703.84;;;17.64;82.87
69037;BME280;58547;51.690;5.186;2022-09-09T13:47:32;100692.34;;;17.75;84.45
69037;BME280;58547;51.690;5.186;2022-09-09T13:49:58;100693.91;;;17.77;84.43
69037;BME280;58547;51.690;5.186;2022-09-09T13:52:34;100691.72;;;17.83;84.88
69037;BME280;58547;51.690;5.186;2022-09-09T13:54:59;100687.00;;;17.86;83.55
69037;BME280;58547;51.690;5.186;2022-09-09T13:57:25;100688.56;;;17.98;85.78
69037;BME280;58547;51.690;5.186;2022-09-09T13:59:51;100693.06;;;18.17;84.08
69037;BME280;58547;51.690;5.186;2022-09-09T14:02:16;100684.72;;;18.22;84.62
69037;BME280;58547;51.690;5.186;2022-09-09T14:04:42;100682.22;;;18.20;81.57
69037;BME280;58547;51.690;5.186;2022-09-09T14:07:15;100692.94;;;18.19;81.79
69037;BME280;58547;51.690;5.186;2022-09-09T14:09:41;100685.56;;;18.13;79.25
69037;BME280;58547;51.690;5.186;2022-09-09T14:12:11;100682.88;;;18.03;80.54
69037;BME280;58547;51.690;5.186;2022-09-09T14:14:37;100688.56;;;17.98;79.11
69037;BME280;58547;51.690;5.186;2022-09-09T14:17:03;100686.91;;;18.07;78.49
69037;BME280;58547;51.690;5.186;2022-09-09T14:19:29;100682.38;;;18.19;79.24
69037;BME280;58547;51.690;5.186;2022-09-09T14:21:55;100690.69;;;18.24;77.93
69037;BME280;58547;51.690;5.186;2022-09-09T14:24:21;100706.13;;;18.29;79.01
69037;BME280;58547;51.690;5.186;2022-09-09T14:26:46;100695.28;;;18.41;78.85
69037;BME280;58547;51.690;5.186;2022-09-09T14:29:13;100692.53;;;18.63;78.79
69037;BME280;58547;51.690;5.186;2022-09-09T14:31:38;100694.06;;;18.94;78.79
69037;BME280;58547;51.690;5.186;2022-09-09T14:34:03;100692.06;;;19.16;76.45